sensor_id;sensor_type;location;lat;lon;timestamp;P1;durP1;ratioP1;P2;durP2;ratioP2
17917;SDS011;9084;50.956;3.106;2022-10-16T00:00:41;1.58;;;1.20;;
17917;SDS011;9084;50.956;3.106;2022-10-16T00:03:07;3.55;;;1.00;;
17917;SDS011;9084;50.956;3.106;2022-10-16T00:05:38;2.03;;;0.90;;
17917;SDS011;9084;50.956;3.106;2022-10-16T00:08:11;1.23;;;1.00;;
17917;SDS011;9084;50.956;3.106;2022-10-16T00:10:37;0.80;;;0.70;;
17917;SDS011;9084;50.956;3.106;2022-10-16T00:13:04;1.42;;;0.90;;
17917;SDS011;9084;50.956;3.106;2022-10-16T00:15:33;1.35;;;0.52;;
17917;SDS011;9084;50.956;3.106;2022-10-16T00:18:04;1.05;;;0.75;;
17917;SDS011;9084;50.956;3.106;2022-10-16T00:20:33;2.38;;;0.85;;
17917;SDS011;9084;50.956;3.106;2022-10-16T00:22:59;1.92;;;0.77;;
17917;SDS011;9084;50.956;3.106;2022-10-16T00:25:25;1.92;;;0.68;;
17917;SDS011;9084;50.956;3.106;2022-10-16T00:27:51;2.00;;;0.85;;
17917;SDS011;9084;50.956;3.106;2022-10-16T00:30:17;2.00;;;0.60;;
17917;SDS011;9084;50.956;3.106;2022-10-16T00:32:43;1.00;;;0.55;;
17917;SDS011;9084;50.956;3.106;2022-10-16T00:35:11;0.70;;;0.70;;
17917;SDS011;9084;50.956;3.106;2022-10-16T00:37:39;0.43;;;0.43;;
17917;SDS011;9084;50.956;3.106;2022-10-16T00:40:07;1.30;;;0.63;;
17917;SDS011;9084;50.956;3.106;2022-10-16T00:42:35;0.80;;;0.60;;
17917;SDS011;9084;50.956;3.106;2022-10-16T00:45:03;1.25;;;0.70;;
17917;SDS011;9084;50.956;3.106;2022-10-16T00:47:31;2.38;;;0.73;;
17917;SDS011;9084;50.956;3.106;2022-10-16T00:50:06;1.50;;;0.80;;
17917;SDS011;9084;50.956;3.106;2022-10-16T00:52:35;0.60;;;0.55;;
17917;SDS011;9084;50.956;3.106;2022-10-16T00:55:05;1.73;;;0.68;;
17917;SDS011;9084;50.956;3.106;2022-10-16T00:57:32;1.98;;;0.73;;
17917;SDS011;9084;50.956;3.106;2022-10-16T00:59:58;1.45;;;0.70;;
17917;SDS011;9084;50.956;3.106;2022-10-16T01:02:24;0.43;;;0.43;;
17917;SDS011;9084;50.956;3.106;2022-10-16T01:04:51;1.33;;;0.73;;
17917;SDS011;9084;50.956;3.106;2022-10-16T01:12:52;2.05;;;1.10;;
17917;SDS011;9084;50.956;3.106;2022-10-16T01:18:14;1.52;;;0.77;;
17917;SDS011;9084;50.956;3.106;2022-10-16T01:26:06;1.35;;;0.70;;
17917;SDS011;9084;50.956;3.106;2022-10-16T01:28:40;1.23;;;0.70;;
17917;SDS011;9084;50.956;3.106;2022-10-16T01:31:14;1.67;;;1.13;;
17917;SDS011;9084;50.956;3.106;2022-10-16T01:33:44;1.35;;;0.60;;
17917;SDS011;9084;50.956;3.106;2022-10-16T01:36:16;1.25;;;0.70;;
17917;SDS011;9084;50.956;3.106;2022-10-16T01:38:49;1.00;;;0.65;;
17917;SDS011;9084;50.956;3.106;2022-10-16T01:41:21;1.45;;;0.73;;
17917;SDS011;9084;50.956;3.106;2022-10-16T01:44:05;0.95;;;0.60;;
17917;SDS011;9084;50.956;3.106;2022-10-16T01:47:01;2.88;;;0.82;;
17917;SDS011;9084;50.956;3.106;2022-10-16T01:49:30;1.40;;;0.55;;
17917;SDS011;9084;50.956;3.106;2022-10-16T01:52:00;1.02;;;0.90;;
17917;SDS011;9084;50.956;3.106;2022-10-16T01:54:31;3.33;;;0.90;;
17917;SDS011;9084;50.956;3.106;2022-10-16T01:57:02;0.70;;;0.70;;
17917;SDS011;9084;50.956;3.106;2022-10-16T01:59:31;1.52;;;1.00;;
17917;SDS011;9084;50.956;3.106;2022-10-16T02:02:05;1.88;;;1.00;;
17917;SDS011;9084;50.956;3.106;2022-10-16T02:04:55;1.95;;;0.80;;
17917;SDS011;9084;50.956;3.106;2022-10-16T02:07:40;1.80;;;1.00;;
17917;SDS011;9084;50.956;3.106;2022-10-16T02:10:07;2.10;;;0.80;;
17917;SDS011;9084;50.956;3.106;2022-10-16T02:12:33;1.00;;;0.57;;
17917;SDS011;9084;50.956;3.106;2022-10-16T02:15:04;0.80;;;0.60;;
17917;SDS011;9084;50.956;3.106;2022-10-16T02:17:31;1.00;;;0.88;;
17917;SDS011;9084;50.956;3.106;2022-10-16T02:19:57;2.95;;;0.85;;
17917;SDS011;9084;50.956;3.106;2022-10-16T02:22:26;1.67;;;1.00;;
17917;SDS011;9084;50.956;3.106;2022-10-16T02:24:59;3.50;;;1.05;;
17917;SDS011;9084;50.956;3.106;2022-10-16T02:27:50;1.90;;;0.80;;
17917;SDS011;9084;50.956;3.106;2022-10-16T02:30:21;1.02;;;0.60;;
17917;SDS011;9084;50.956;3.106;2022-10-16T02:32:55;0.82;;;0.82;;
17917;SDS011;9084;50.956;3.106;2022-10-16T02:35:24;2.25;;;1.10;;
17917;SDS011;9084;50.956;3.106;2022-10-16T02:37:53;2.40;;;0.77;;
17917;SDS011;9084;50.956;3.106;2022-10-16T02:40:20;3.72;;;0.80;;
17917;SDS011;9084;50.956;3.106;2022-10-16T02:42:49;1.13;;;0.70;;
17917;SDS011;9084;50.956;3.106;2022-10-16T02:45:17;2.10;;;1.35;;
17917;SDS011;9084;50.956;3.106;2022-10-16T02:47:43;1.05;;;0.65;;
17917;SDS011;9084;50.956;3.106;2022-10-16T02:50:12;0.90;;;0.80;;
17917;SDS011;9084;50.956;3.106;2022-10-16T02:52:37;1.70;;;0.57;;
17917;SDS011;9084;50.956;3.106;2022-10-16T02:55:03;4.28;;;1.13;;
17917;SDS011;9084;50.956;3.106;2022-10-16T02:57:32;3.80;;;0.93;;
17917;SDS011;9084;50.956;3.106;2022-10-16T02:59:58;1.38;;;0.85;;
17917;SDS011;9084;50.956;3.106;2022-10-16T03:02:24;0.82;;;0.60;;
17917;SDS011;9084;50.956;3.106;2022-10-16T03:04:50;0.90;;;0.73;;
17917;SDS011;9084;50.956;3.106;2022-10-16T03:07:16;2.60;;;1.00;;
17917;SDS011;9084;50.956;3.106;2022-10-16T03:09:42;0.93;;;0.70;;
17917;SDS011;9084;50.956;3.106;2022-10-16T03:12:07;3.10;;;0.90;;
17917;SDS011;9084;50.956;3.106;2022-10-16T03:14:33;1.92;;;0.90;;
17917;SDS011;9084;50.956;3.106;2022-10-16T03:17:01;2.25;;;1.17;;
17917;SDS011;9084;50.956;3.106;2022-10-16T03:19:29;2.17;;;0.98;;
17917;SDS011;9084;50.956;3.106;2022-10-16T03:21:55;0.85;;;0.70;;
17917;SDS011;9084;50.956;3.106;2022-10-16T03:24:21;2.53;;;0.75;;
17917;SDS011;9084;50.956;3.106;2022-10-16T03:26:47;2.47;;;0.70;;
17917;SDS011;9084;50.956;3.106;2022-10-16T03:29:13;2.58;;;1.00;;
17917;SDS011;9084;50.956;3.106;2022-10-16T03:31:41;3.13;;;0.82;;
17917;SDS011;9084;50.956;3.106;2022-10-16T03:34:09;2.47;;;0.77;;
17917;SDS011;9084;50.956;3.106;2022-10-16T03:36:37;1.63;;;0.90;;
17917;SDS011;9084;50.956;3.106;2022-10-16T03:39:03;3.17;;;0.88;;
17917;SDS011;9084;50.956;3.106;2022-10-16T03:41:31;3.85;;;0.98;;
17917;SDS011;9084;50.956;3.106;2022-10-16T03:43:57;1.55;;;0.88;;
17917;SDS011;9084;50.956;3.106;2022-10-16T03:46:24;1.73;;;0.80;;
17917;SDS011;9084;50.956;3.106;2022-10-16T03:48:50;1.48;;;0.73;;
17917;SDS011;9084;50.956;3.106;2022-10-16T03:51:15;2.35;;;1.02;;
17917;SDS011;9084;50.956;3.106;2022-10-16T03:53:44;3.63;;;1.25;;
17917;SDS011;9084;50.956;3.106;2022-10-16T03:56:10;1.00;;;0.90;;
17917;SDS011;9084;50.956;3.106;2022-10-16T03:58:38;1.73;;;0.90;;
17917;SDS011;9084;50.956;3.106;2022-10-16T04:01:03;2.92;;;0.80;;
17917;SDS011;9084;50.956;3.106;2022-10-16T04:03:29;1.58;;;1.27;;
17917;SDS011;9084;50.956;3.106;2022-10-16T04:05:58;4.53;;;1.35;;
17917;SDS011;9084;50.956;3.106;2022-10-16T04:08:28;1.55;;;0.88;;
17917;SDS011;9084;50.956;3.106;2022-10-16T04:10:54;2.00;;;1.05;;
17917;SDS011;9084;50.956;3.106;2022-10-16T04:13:20;1.20;;;0.77;;
17917;SDS011;9084;50.956;3.106;2022-10-16T04:15:46;2.72;;;0.77;;
17917;SDS011;9084;50.956;3.106;2022-10-16T04:18:13;1.25;;;0.90;;
17917;SDS011;9084;50.956;3.106;2022-10-16T04:20:39;1.35;;;0.82;;
17917;SDS011;9084;50.956;3.106;2022-10-16T04:23:05;1.52;;;0.70;;
17917;SDS011;9084;50.956;3.106;2022-10-16T04:25:34;1.30;;;0.80;;
17917;SDS011;9084;50.956;3.106;2022-10-16T04:28:02;1.45;;;0.88;;
17917;SDS011;9084;50.956;3.106;2022-10-16T04:30:28;2.67;;;0.95;;
17917;SDS011;9084;50.956;3.106;2022-10-16T04:32:58;2.50;;;1.27;;
17917;SDS011;9084;50.956;3.106;2022-10-16T04:35:24;2.17;;;0.90;;
17917;SDS011;9084;50.956;3.106;2022-10-16T04:37:50;3.88;;;1.20;;
17917;SDS011;9084;50.956;3.106;2022-10-16T04:40:18;3.22;;;1.08;;
17917;SDS011;9084;50.956;3.106;2022-10-16T04:42:46;1.23;;;0.90;;
17917;SDS011;9084;50.956;3.106;2022-10-16T04:45:12;2.22;;;0.93;;
17917;SDS011;9084;50.956;3.106;2022-10-16T04:47:40;3.97;;;0.90;;
17917;SDS011;9084;50.956;3.106;2022-10-16T04:50:07;1.50;;;0.93;;
17917;SDS011;9084;50.956;3.106;2022-10-16T04:52:35;1.15;;;0.98;;
17917;SDS011;9084;50.956;3.106;2022-10-16T04:55:01;1.85;;;0.70;;
17917;SDS011;9084;50.956;3.106;2022-10-16T04:57:28;3.20;;;1.05;;
17917;SDS011;9084;50.956;3.106;2022-10-16T04:59:54;4.18;;;1.05;;
17917;SDS011;9084;50.956;3.106;2022-10-16T05:02:20;2.50;;;0.68;;
17917;SDS011;9084;50.956;3.106;2022-10-16T05:04:48;2.72;;;0.90;;
17917;SDS011;9084;50.956;3.106;2022-10-16T05:07:14;2.25;;;1.00;;
17917;SDS011;9084;50.956;3.106;2022-10-16T05:09:40;2.28;;;1.00;;
17917;SDS011;9084;50.956;3.106;2022-10-16T05:12:06;2.95;;;0.90;;
17917;SDS011;9084;50.956;3.106;2022-10-16T05:14:34;3.10;;;1.00;;
17917;SDS011;9084;50.956;3.106;2022-10-16T05:17:00;2.80;;;0.85;;
17917;SDS011;9084;50.956;3.106;2022-10-16T05:19:29;2.35;;;1.27;;
17917;SDS011;9084;50.956;3.106;2022-10-16T05:21:55;2.92;;;0.90;;
17917;SDS011;9084;50.956;3.106;2022-10-16T05:24:20;1.00;;;0.70;;
17917;SDS011;9084;50.956;3.106;2022-10-16T05:26:49;5.50;;;1.00;;
17917;SDS011;9084;50.956;3.106;2022-10-16T05:29:18;2.53;;;0.93;;
17917;SDS011;9084;50.956;3.106;2022-10-16T05:31:49;3.70;;;1.10;;
17917;SDS011;9084;50.956;3.106;2022-10-16T05:34:16;3.00;;;1.08;;
17917;SDS011;9084;50.956;3.106;2022-10-16T05:36:42;3.17;;;0.80;;
17917;SDS011;9084;50.956;3.106;2022-10-16T05:39:10;4.50;;;0.90;;
17917;SDS011;9084;50.956;3.106;2022-10-16T05:41:36;2.97;;;0.82;;
17917;SDS011;9084;50.956;3.106;2022-10-16T05:44:05;2.55;;;0.68;;
17917;SDS011;9084;50.956;3.106;2022-10-16T05:46:33;3.40;;;1.02;;
17917;SDS011;9084;50.956;3.106;2022-10-16T05:49:02;2.78;;;1.20;;
17917;SDS011;9084;50.956;3.106;2022-10-16T05:51:28;3.97;;;1.58;;
17917;SDS011;9084;50.956;3.106;2022-10-16T05:53:54;2.47;;;0.82;;
17917;SDS011;9084;50.956;3.106;2022-10-16T05:56:22;2.65;;;1.00;;
17917;SDS011;9084;50.956;3.106;2022-10-16T05:58:48;4.13;;;0.90;;
17917;SDS011;9084;50.956;3.106;2022-10-16T06:01:17;5.72;;;0.90;;
17917;SDS011;9084;50.956;3.106;2022-10-16T06:03:45;6.10;;;1.08;;
17917;SDS011;9084;50.956;3.106;2022-10-16T06:06:12;2.67;;;1.42;;
17917;SDS011;9084;50.956;3.106;2022-10-16T06:08:38;3.00;;;1.50;;
17917;SDS011;9084;50.956;3.106;2022-10-16T06:11:08;2.08;;;1.20;;
17917;SDS011;9084;50.956;3.106;2022-10-16T06:13:38;2.83;;;1.83;;
17917;SDS011;9084;50.956;3.106;2022-10-16T06:16:06;5.45;;;2.15;;
17917;SDS011;9084;50.956;3.106;2022-10-16T06:18:35;5.45;;;3.70;;
17917;SDS011;9084;50.956;3.106;2022-10-16T06:21:06;3.50;;;1.85;;
17917;SDS011;9084;50.956;3.106;2022-10-16T06:23:34;3.00;;;1.60;;
17917;SDS011;9084;50.956;3.106;2022-10-16T06:26:10;2.75;;;1.50;;
17917;SDS011;9084;50.956;3.106;2022-10-16T06:28:37;2.67;;;1.73;;
17917;SDS011;9084;50.956;3.106;2022-10-16T06:31:03;3.25;;;1.52;;
17917;SDS011;9084;50.956;3.106;2022-10-16T06:33:30;2.20;;;1.98;;
17917;SDS011;9084;50.956;3.106;2022-10-16T06:36:06;3.75;;;1.27;;
17917;SDS011;9084;50.956;3.106;2022-10-16T06:38:37;1.98;;;1.40;;
17917;SDS011;9084;50.956;3.106;2022-10-16T06:41:06;5.18;;;1.90;;
17917;SDS011;9084;50.956;3.106;2022-10-16T06:43:33;3.10;;;1.60;;
17917;SDS011;9084;50.956;3.106;2022-10-16T06:46:03;2.17;;;1.60;;
17917;SDS011;9084;50.956;3.106;2022-10-16T06:48:35;3.95;;;1.60;;
17917;SDS011;9084;50.956;3.106;2022-10-16T06:53:30;1.85;;;1.60;;
17917;SDS011;9084;50.956;3.106;2022-10-16T06:58:39;3.97;;;1.75;;
17917;SDS011;9084;50.956;3.106;2022-10-16T07:01:06;3.25;;;1.67;;
17917;SDS011;9084;50.956;3.106;2022-10-16T07:03:35;3.65;;;1.98;;
17917;SDS011;9084;50.956;3.106;2022-10-16T07:06:03;3.92;;;2.10;;
17917;SDS011;9084;50.956;3.106;2022-10-16T07:08:30;4.93;;;1.65;;
17917;SDS011;9084;50.956;3.106;2022-10-16T07:11:04;2.20;;;1.33;;
17917;SDS011;9084;50.956;3.106;2022-10-16T07:13:33;2.42;;;1.77;;
17917;SDS011;9084;50.956;3.106;2022-10-16T07:16:19;2.92;;;1.40;;
17917;SDS011;9084;50.956;3.106;2022-10-16T07:18:46;2.80;;;1.17;;
17917;SDS011;9084;50.956;3.106;2022-10-16T07:21:14;2.40;;;1.35;;
17917;SDS011;9084;50.956;3.106;2022-10-16T07:23:44;5.20;;;3.20;;
17917;SDS011;9084;50.956;3.106;2022-10-16T07:26:10;3.33;;;1.65;;
17917;SDS011;9084;50.956;3.106;2022-10-16T07:28:37;1.30;;;1.00;;
17917;SDS011;9084;50.956;3.106;2022-10-16T07:31:07;2.30;;;1.05;;
17917;SDS011;9084;50.956;3.106;2022-10-16T07:33:38;3.38;;;0.85;;
17917;SDS011;9084;50.956;3.106;2022-10-16T07:36:04;3.58;;;1.80;;
17917;SDS011;9084;50.956;3.106;2022-10-16T07:38:31;2.92;;;0.95;;
17917;SDS011;9084;50.956;3.106;2022-10-16T07:40:59;1.90;;;1.00;;
17917;SDS011;9084;50.956;3.106;2022-10-16T07:43:29;2.20;;;0.90;;
17917;SDS011;9084;50.956;3.106;2022-10-16T07:45:55;2.17;;;1.00;;
17917;SDS011;9084;50.956;3.106;2022-10-16T07:48:22;3.35;;;1.23;;
17917;SDS011;9084;50.956;3.106;2022-10-16T07:50:49;2.10;;;1.02;;
17917;SDS011;9084;50.956;3.106;2022-10-16T07:53:15;2.60;;;1.30;;
17917;SDS011;9084;50.956;3.106;2022-10-16T07:55:41;3.05;;;1.13;;
17917;SDS011;9084;50.956;3.106;2022-10-16T07:58:07;1.60;;;1.25;;
17917;SDS011;9084;50.956;3.106;2022-10-16T08:00:33;2.25;;;1.08;;
17917;SDS011;9084;50.956;3.106;2022-10-16T08:02:59;2.25;;;1.20;;
17917;SDS011;9084;50.956;3.106;2022-10-16T08:05:26;4.18;;;1.33;;
17917;SDS011;9084;50.956;3.106;2022-10-16T08:07:56;4.35;;;1.30;;
17917;SDS011;9084;50.956;3.106;2022-10-16T08:10:24;5.97;;;2.40;;
17917;SDS011;9084;50.956;3.106;2022-10-16T08:12:51;2.58;;;1.20;;
17917;SDS011;9084;50.956;3.106;2022-10-16T08:15:17;2.92;;;1.50;;
17917;SDS011;9084;50.956;3.106;2022-10-16T08:17:53;3.75;;;1.83;;
17917;SDS011;9084;50.956;3.106;2022-10-16T08:20:19;1.90;;;0.98;;
17917;SDS011;9084;50.956;3.106;2022-10-16T08:22:48;1.67;;;1.00;;
17917;SDS011;9084;50.956;3.106;2022-10-16T08:25:14;2.78;;;1.17;;
17917;SDS011;9084;50.956;3.106;2022-10-16T08:27:39;2.05;;;0.90;;
17917;SDS011;9084;50.956;3.106;2022-10-16T08:30:10;5.85;;;1.25;;
17917;SDS011;9084;50.956;3.106;2022-10-16T08:32:41;4.03;;;0.98;;
17917;SDS011;9084;50.956;3.106;2022-10-16T08:35:10;5.32;;;1.20;;
17917;SDS011;9084;50.956;3.106;2022-10-16T08:37:39;5.57;;;1.73;;
17917;SDS011;9084;50.956;3.106;2022-10-16T08:40:06;4.45;;;1.55;;
17917;SDS011;9084;50.956;3.106;2022-10-16T08:42:59;4.13;;;1.45;;
17917;SDS011;9084;50.956;3.106;2022-10-16T08:46:05;2.50;;;1.02;;
17917;SDS011;9084;50.956;3.106;2022-10-16T08:48:53;2.30;;;1.15;;
17917;SDS011;9084;50.956;3.106;2022-10-16T08:51:23;3.78;;;1.10;;
17917;SDS011;9084;50.956;3.106;2022-10-16T08:53:59;2.85;;;1.30;;
17917;SDS011;9084;50.956;3.106;2022-10-16T08:56:31;6.50;;;1.55;;
17917;SDS011;9084;50.956;3.106;2022-10-16T08:58:58;3.00;;;0.90;;
17917;SDS011;9084;50.956;3.106;2022-10-16T09:01:27;6.28;;;1.13;;
17917;SDS011;9084;50.956;3.106;2022-10-16T09:07:14;5.22;;;1.20;;
17917;SDS011;9084;50.956;3.106;2022-10-16T09:10:08;3.28;;;1.35;;
17917;SDS011;9084;50.956;3.106;2022-10-16T09:12:39;2.55;;;1.30;;
17917;SDS011;9084;50.956;3.106;2022-10-16T09:23:25;5.53;;;1.23;;
17917;SDS011;9084;50.956;3.106;2022-10-16T09:25:57;5.63;;;1.30;;
17917;SDS011;9084;50.956;3.106;2022-10-16T09:28:26;5.40;;;1.10;;
17917;SDS011;9084;50.956;3.106;2022-10-16T09:30:52;4.07;;;1.23;;
17917;SDS011;9084;50.956;3.106;2022-10-16T09:33:19;3.80;;;0.95;;
17917;SDS011;9084;50.956;3.106;2022-10-16T09:35:51;2.67;;;0.95;;
17917;SDS011;9084;50.956;3.106;2022-10-16T09:41:10;5.32;;;1.05;;
17917;SDS011;9084;50.956;3.106;2022-10-16T09:43:48;4.88;;;1.08;;
17917;SDS011;9084;50.956;3.106;2022-10-16T09:46:31;3.75;;;1.48;;
17917;SDS011;9084;50.956;3.106;2022-10-16T09:49:00;4.38;;;1.27;;
17917;SDS011;9084;50.956;3.106;2022-10-16T09:51:35;4.32;;;1.50;;
17917;SDS011;9084;50.956;3.106;2022-10-16T09:54:12;2.42;;;1.23;;
17917;SDS011;9084;50.956;3.106;2022-10-16T09:56:45;4.38;;;1.58;;
17917;SDS011;9084;50.956;3.106;2022-10-16T09:59:20;5.20;;;1.30;;
17917;SDS011;9084;50.956;3.106;2022-10-16T10:01:49;4.53;;;1.48;;
17917;SDS011;9084;50.956;3.106;2022-10-16T10:04:18;4.78;;;1.70;;
17917;SDS011;9084;50.956;3.106;2022-10-16T10:06:52;4.38;;;1.40;;
17917;SDS011;9084;50.956;3.106;2022-10-16T10:09:38;7.97;;;1.45;;
17917;SDS011;9084;50.956;3.106;2022-10-16T10:12:04;4.53;;;1.35;;
17917;SDS011;9084;50.956;3.106;2022-10-16T10:14:34;6.80;;;1.38;;
17917;SDS011;9084;50.956;3.106;2022-10-16T10:19:37;6.25;;;1.60;;
17917;SDS011;9084;50.956;3.106;2022-10-16T10:35:52;6.90;;;1.17;;
17917;SDS011;9084;50.956;3.106;2022-10-16T10:46:57;4.63;;;1.35;;
17917;SDS011;9084;50.956;3.106;2022-10-16T10:52:48;3.03;;;1.27;;
17917;SDS011;9084;50.956;3.106;2022-10-16T11:01:39;4.82;;;1.80;;
17917;SDS011;9084;50.956;3.106;2022-10-16T11:04:20;3.95;;;1.40;;
17917;SDS011;9084;50.956;3.106;2022-10-16T11:07:00;4.85;;;1.30;;
17917;SDS011;9084;50.956;3.106;2022-10-16T11:09:34;4.13;;;1.85;;
17917;SDS011;9084;50.956;3.106;2022-10-16T11:12:09;5.50;;;1.60;;
17917;SDS011;9084;50.956;3.106;2022-10-16T11:14:49;7.03;;;1.52;;
17917;SDS011;9084;50.956;3.106;2022-10-16T11:17:30;6.20;;;1.65;;
17917;SDS011;9084;50.956;3.106;2022-10-16T11:20:02;3.50;;;1.20;;
17917;SDS011;9084;50.956;3.106;2022-10-16T11:22:55;7.82;;;1.20;;
17917;SDS011;9084;50.956;3.106;2022-10-16T11:25:27;6.10;;;1.20;;
17917;SDS011;9084;50.956;3.106;2022-10-16T11:28:15;4.25;;;1.45;;
17917;SDS011;9084;50.956;3.106;2022-10-16T11:31:11;3.72;;;1.75;;
17917;SDS011;9084;50.956;3.106;2022-10-16T11:33:44;2.83;;;1.50;;
17917;SDS011;9084;50.956;3.106;2022-10-16T11:36:26;4.72;;;1.33;;
17917;SDS011;9084;50.956;3.106;2022-10-16T11:49:55;4.82;;;1.38;;
17917;SDS011;9084;50.956;3.106;2022-10-16T11:52:26;2.92;;;1.13;;
17917;SDS011;9084;50.956;3.106;2022-10-16T11:55:16;4.15;;;1.08;;
17917;SDS011;9084;50.956;3.106;2022-10-16T11:57:52;4.78;;;1.50;;
17917;SDS011;9084;50.956;3.106;2022-10-16T12:00:28;4.03;;;1.67;;
17917;SDS011;9084;50.956;3.106;2022-10-16T12:03:21;3.78;;;1.08;;
17917;SDS011;9084;50.956;3.106;2022-10-16T12:08:33;2.92;;;1.90;;
17917;SDS011;9084;50.956;3.106;2022-10-16T12:11:36;4.25;;;1.48;;
17917;SDS011;9084;50.956;3.106;2022-10-16T12:14:59;4.50;;;1.30;;
17917;SDS011;9084;50.956;3.106;2022-10-16T12:17:02;3.22;;;1.95;;
17917;SDS011;9084;50.956;3.106;2022-10-16T12:19:31;4.72;;;1.27;;
17917;SDS011;9084;50.956;3.106;2022-10-16T12:22:01;3.30;;;1.50;;
17917;SDS011;9084;50.956;3.106;2022-10-16T12:24:38;2.08;;;1.40;;
17917;SDS011;9084;50.956;3.106;2022-10-16T12:30:02;3.40;;;1.30;;
17917;SDS011;9084;50.956;3.106;2022-10-16T12:32:35;3.92;;;1.10;;
17917;SDS011;9084;50.956;3.106;2022-10-16T12:35:03;5.20;;;1.30;;
17917;SDS011;9084;50.956;3.106;2022-10-16T12:37:37;1.70;;;0.98;;
17917;SDS011;9084;50.956;3.106;2022-10-16T12:40:23;3.15;;;1.00;;
17917;SDS011;9084;50.956;3.106;2022-10-16T12:43:10;3.15;;;1.20;;
17917;SDS011;9084;50.956;3.106;2022-10-16T12:45:45;1.70;;;0.95;;
17917;SDS011;9084;50.956;3.106;2022-10-16T12:48:19;1.17;;;0.55;;
17917;SDS011;9084;50.956;3.106;2022-10-16T12:50:49;2.38;;;1.10;;
17917;SDS011;9084;50.956;3.106;2022-10-16T12:53:23;2.38;;;0.90;;
17917;SDS011;9084;50.956;3.106;2022-10-16T12:58:53;3.22;;;0.93;;
17917;SDS011;9084;50.956;3.106;2022-10-16T13:01:41;3.28;;;1.02;;
17917;SDS011;9084;50.956;3.106;2022-10-16T13:10:00;2.40;;;0.95;;
17917;SDS011;9084;50.956;3.106;2022-10-16T13:26:40;2.22;;;1.10;;
17917;SDS011;9084;50.956;3.106;2022-10-16T13:29:31;5.63;;;1.77;;
17917;SDS011;9084;50.956;3.106;2022-10-16T13:31:59;2.17;;;1.17;;
17917;SDS011;9084;50.956;3.106;2022-10-16T13:34:27;2.15;;;0.90;;
17917;SDS011;9084;50.956;3.106;2022-10-16T13:36:54;1.67;;;1.00;;
17917;SDS011;9084;50.956;3.106;2022-10-16T13:39:23;5.35;;;0.93;;
17917;SDS011;9084;50.956;3.106;2022-10-16T13:42:03;2.28;;;0.85;;
17917;SDS011;9084;50.956;3.106;2022-10-16T13:44:35;2.20;;;1.10;;
17917;SDS011;9084;50.956;3.106;2022-10-16T13:47:10;2.55;;;1.08;;
17917;SDS011;9084;50.956;3.106;2022-10-16T13:49:42;2.97;;;1.00;;
17917;SDS011;9084;50.956;3.106;2022-10-16T13:52:18;1.08;;;0.70;;
17917;SDS011;9084;50.956;3.106;2022-10-16T13:54:45;2.38;;;0.88;;
17917;SDS011;9084;50.956;3.106;2022-10-16T13:57:13;3.00;;;0.90;;
17917;SDS011;9084;50.956;3.106;2022-10-16T13:59:40;1.77;;;0.63;;
17917;SDS011;9084;50.956;3.106;2022-10-16T14:04:47;1.45;;;0.50;;
17917;SDS011;9084;50.956;3.106;2022-10-16T14:07:19;1.30;;;0.52;;
17917;SDS011;9084;50.956;3.106;2022-10-16T14:09:51;3.90;;;0.80;;
17917;SDS011;9084;50.956;3.106;2022-10-16T14:12:18;1.73;;;0.82;;
17917;SDS011;9084;50.956;3.106;2022-10-16T14:14:47;0.75;;;0.57;;
17917;SDS011;9084;50.956;3.106;2022-10-16T14:17:16;1.13;;;0.70;;
17917;SDS011;9084;50.956;3.106;2022-10-16T14:19:54;1.48;;;0.80;;
17917;SDS011;9084;50.956;3.106;2022-10-16T14:22:34;2.92;;;0.70;;
17917;SDS011;9084;50.956;3.106;2022-10-16T14:28:31;1.20;;;0.68;;
17917;SDS011;9084;50.956;3.106;2022-10-16T14:30:57;2.97;;;0.75;;
17917;SDS011;9084;50.956;3.106;2022-10-16T14:36:13;1.17;;;0.70;;
17917;SDS011;9084;50.956;3.106;2022-10-16T14:38:42;2.08;;;1.08;;
17917;SDS011;9084;50.956;3.106;2022-10-16T14:41:16;2.53;;;0.90;;
17917;SDS011;9084;50.956;3.106;2022-10-16T14:43:49;1.75;;;0.70;;
17917;SDS011;9084;50.956;3.106;2022-10-16T14:46:27;1.83;;;0.65;;
17917;SDS011;9084;50.956;3.106;2022-10-16T14:51:40;2.13;;;0.70;;
17917;SDS011;9084;50.956;3.106;2022-10-16T14:54:11;1.80;;;0.65;;
17917;SDS011;9084;50.956;3.106;2022-10-16T14:56:51;1.77;;;0.65;;
17917;SDS011;9084;50.956;3.106;2022-10-16T14:59:34;1.35;;;0.90;;
17917;SDS011;9084;50.956;3.106;2022-10-16T15:02:01;2.65;;;0.98;;
17917;SDS011;9084;50.956;3.106;2022-10-16T15:04:43;3.92;;;0.75;;
17917;SDS011;9084;50.956;3.106;2022-10-16T15:07:10;2.70;;;1.48;;
17917;SDS011;9084;50.956;3.106;2022-10-16T15:09:37;2.30;;;0.95;;
17917;SDS011;9084;50.956;3.106;2022-10-16T15:12:02;2.60;;;1.23;;
17917;SDS011;9084;50.956;3.106;2022-10-16T15:14:29;3.35;;;1.02;;
17917;SDS011;9084;50.956;3.106;2022-10-16T15:16:54;2.50;;;1.20;;
17917;SDS011;9084;50.956;3.106;2022-10-16T15:19:20;2.05;;;1.00;;
17917;SDS011;9084;50.956;3.106;2022-10-16T15:21:48;2.92;;;1.05;;
17917;SDS011;9084;50.956;3.106;2022-10-16T15:24:14;1.92;;;1.10;;
17917;SDS011;9084;50.956;3.106;2022-10-16T15:26:40;2.80;;;1.50;;
17917;SDS011;9084;50.956;3.106;2022-10-16T15:29:07;2.75;;;1.48;;
17917;SDS011;9084;50.956;3.106;2022-10-16T15:31:35;3.63;;;1.00;;
17917;SDS011;9084;50.956;3.106;2022-10-16T15:34:08;2.97;;;1.02;;
17917;SDS011;9084;50.956;3.106;2022-10-16T15:36:35;2.75;;;1.20;;
17917;SDS011;9084;50.956;3.106;2022-10-16T15:39:16;1.45;;;1.00;;
17917;SDS011;9084;50.956;3.106;2022-10-16T15:41:44;1.58;;;0.90;;
17917;SDS011;9084;50.956;3.106;2022-10-16T15:44:15;1.92;;;1.00;;
17917;SDS011;9084;50.956;3.106;2022-10-16T15:46:54;1.85;;;0.88;;
17917;SDS011;9084;50.956;3.106;2022-10-16T15:49:23;2.33;;;1.20;;
17917;SDS011;9084;50.956;3.106;2022-10-16T15:51:49;2.33;;;0.98;;
17917;SDS011;9084;50.956;3.106;2022-10-16T15:54:18;1.45;;;0.80;;
17917;SDS011;9084;50.956;3.106;2022-10-16T15:56:47;2.33;;;0.93;;
17917;SDS011;9084;50.956;3.106;2022-10-16T15:59:13;1.63;;;1.00;;
17917;SDS011;9084;50.956;3.106;2022-10-16T16:01:40;3.85;;;1.20;;
17917;SDS011;9084;50.956;3.106;2022-10-16T16:04:06;1.70;;;1.02;;
17917;SDS011;9084;50.956;3.106;2022-10-16T16:06:31;1.88;;;1.10;;
17917;SDS011;9084;50.956;3.106;2022-10-16T16:08:58;2.50;;;1.33;;
17917;SDS011;9084;50.956;3.106;2022-10-16T16:11:24;4.47;;;1.48;;
17917;SDS011;9084;50.956;3.106;2022-10-16T16:13:50;2.80;;;1.35;;
17917;SDS011;9084;50.956;3.106;2022-10-16T16:16:16;3.33;;;1.67;;
17917;SDS011;9084;50.956;3.106;2022-10-16T16:18:44;3.47;;;1.65;;
17917;SDS011;9084;50.956;3.106;2022-10-16T16:21:14;2.00;;;1.33;;
17917;SDS011;9084;50.956;3.106;2022-10-16T16:23:42;2.47;;;1.50;;
17917;SDS011;9084;50.956;3.106;2022-10-16T16:26:20;1.67;;;1.25;;
17917;SDS011;9084;50.956;3.106;2022-10-16T16:28:59;2.90;;;1.55;;
17917;SDS011;9084;50.956;3.106;2022-10-16T16:31:26;2.30;;;1.40;;
17917;SDS011;9084;50.956;3.106;2022-10-16T16:33:56;1.55;;;1.15;;
17917;SDS011;9084;50.956;3.106;2022-10-16T16:36:23;1.48;;;1.38;;
17917;SDS011;9084;50.956;3.106;2022-10-16T16:38:50;2.35;;;1.60;;
17917;SDS011;9084;50.956;3.106;2022-10-16T16:41:19;1.75;;;1.40;;
17917;SDS011;9084;50.956;3.106;2022-10-16T16:43:47;2.38;;;1.60;;
17917;SDS011;9084;50.956;3.106;2022-10-16T16:46:14;2.75;;;1.38;;
17917;SDS011;9084;50.956;3.106;2022-10-16T16:48:40;3.78;;;1.67;;
17917;SDS011;9084;50.956;3.106;2022-10-16T16:51:08;4.22;;;2.17;;
17917;SDS011;9084;50.956;3.106;2022-10-16T16:53:41;4.40;;;1.85;;
17917;SDS011;9084;50.956;3.106;2022-10-16T16:56:10;4.18;;;1.90;;
17917;SDS011;9084;50.956;3.106;2022-10-16T16:58:36;2.67;;;2.10;;
17917;SDS011;9084;50.956;3.106;2022-10-16T17:01:02;2.55;;;1.90;;
17917;SDS011;9084;50.956;3.106;2022-10-16T17:03:28;2.20;;;1.80;;
17917;SDS011;9084;50.956;3.106;2022-10-16T17:06:05;2.53;;;1.70;;
17917;SDS011;9084;50.956;3.106;2022-10-16T17:08:35;2.83;;;1.90;;
17917;SDS011;9084;50.956;3.106;2022-10-16T17:11:10;3.15;;;2.58;;
17917;SDS011;9084;50.956;3.106;2022-10-16T17:13:43;5.18;;;3.03;;
17917;SDS011;9084;50.956;3.106;2022-10-16T17:16:12;3.35;;;2.80;;
17917;SDS011;9084;50.956;3.106;2022-10-16T17:18:38;6.47;;;4.38;;